createdAt,value
2023-02-03T00:02:07.428Z,2.55
2023-02-03T00:04:34.736Z,2.47
2023-02-03T00:07:02.269Z,2.60
2023-02-03T00:09:29.729Z,2.80
2023-02-03T00:11:57.713Z,2.45
2023-02-03T00:14:24.986Z,2.55
2023-02-03T00:16:52.589Z,2.25
2023-02-03T00:19:19.872Z,2.40
2023-02-03T00:21:47.335Z,2.40
2023-02-03T00:24:14.695Z,2.55
2023-02-03T00:26:42.996Z,2.15
2023-02-03T00:29:10.651Z,2.80
2023-02-03T00:31:38.235Z,2.47
2023-02-03T00:34:05.684Z,2.80
2023-02-03T00:36:33.174Z,2.60
2023-02-03T00:39:01.345Z,2.67
2023-02-03T00:41:31.285Z,2.60
2023-02-03T00:43:58.518Z,2.33
2023-02-03T00:46:26.042Z,2.35
2023-02-03T00:48:53.263Z,2.80
2023-02-03T00:51:21.489Z,2.42
2023-02-03T00:53:49.412Z,2.60
2023-02-03T00:56:16.944Z,2.65
2023-02-03T00:58:44.632Z,2.35
2023-02-03T01:01:12.215Z,2.90
2023-02-03T01:03:39.690Z,2.30
2023-02-03T01:06:15.968Z,2.67
2023-02-03T01:08:44.290Z,2.58
2023-02-03T01:11:19.128Z,2.55
2023-02-03T01:13:46.417Z,2.47
2023-02-03T01:16:16.202Z,2.38
2023-02-03T01:18:44.115Z,2.35
2023-02-03T01:21:20.215Z,2.40
2023-02-03T01:23:47.608Z,2.50
2023-02-03T01:26:18.606Z,2.33
2023-02-03T01:28:52.996Z,2.60
2023-02-03T01:31:26.520Z,2.53
2023-02-03T01:33:55.436Z,2.50
2023-02-03T01:36:25.661Z,2.33
2023-02-03T01:38:53.632Z,2.13
2023-02-03T01:41:29.782Z,2.45
2023-02-03T01:43:59.123Z,2.30
2023-02-03T01:46:38.631Z,2.50
2023-02-03T01:49:18.533Z,2.28
2023-02-03T01:51:47.012Z,2.53
2023-02-03T01:54:23.849Z,2.53
2023-02-03T01:56:55.342Z,2.30
2023-02-03T01:59:24.530Z,2.35
2023-02-03T02:01:53.834Z,2.22
2023-02-03T02:04:26.299Z,2.30
2023-02-03T02:06:56.377Z,2.05
2023-02-03T02:09:26.874Z,2.60
2023-02-03T02:11:54.407Z,2.25
2023-02-03T02:14:21.710Z,2.22
2023-02-03T02:16:53.247Z,2.45
2023-02-03T02:19:43.155Z,2.35
2023-02-03T02:22:29.347Z,2.38
2023-02-03T02:25:23.804Z,2.50
2023-02-03T02:28:10.800Z,2.35
2023-02-03T02:31:15.949Z,2.60
2023-02-03T02:34:02.617Z,2.53
2023-02-03T02:37:09.724Z,1.98
2023-02-03T02:42:24.467Z,2.20
2023-02-03T02:44:58.773Z,2.13
2023-02-03T02:47:25.997Z,2.75
2023-02-03T02:50:07.003Z,2.80
2023-02-03T02:52:38.911Z,2.40
2023-02-03T02:55:14.792Z,2.50
2023-02-03T02:57:43.967Z,2.20
2023-02-03T03:00:12.282Z,2.42
2023-02-03T03:02:39.495Z,2.10
2023-02-03T03:05:10.624Z,2.22
2023-02-03T03:08:02.144Z,2.40
2023-02-03T03:10:32.598Z,2.47
2023-02-03T03:13:04.878Z,2.17
2023-02-03T03:15:34.768Z,2.20
2023-02-03T03:18:10.578Z,2.30
2023-02-03T03:20:42.874Z,2.00
2023-02-03T03:23:23.133Z,2.35
2023-02-03T03:25:59.031Z,2.10
2023-02-03T03:28:35.242Z,2.10
2023-02-03T03:31:02.819Z,2.25
2023-02-03T03:33:30.031Z,2.40
2023-02-03T03:36:25.530Z,2.47
2023-02-03T03:39:05.344Z,2.40
2023-02-03T03:41:43.557Z,2.25
2023-02-03T03:44:15.121Z,2.63
2023-02-03T03:46:49.827Z,2.20
2023-02-03T03:49:20.337Z,2.70
2023-02-03T03:51:58.682Z,2.13
2023-02-03T03:54:27.722Z,2.20
2023-02-03T03:57:03.289Z,2.03
2023-02-03T03:59:34.359Z,2.30
2023-02-03T04:02:04.901Z,1.92
2023-02-03T04:04:35.259Z,2.00
2023-02-03T04:07:02.753Z,2.28
2023-02-03T04:09:29.980Z,2.00
2023-02-03T04:12:03.398Z,2.00
2023-02-03T04:14:35.588Z,1.98
2023-02-03T04:17:03.106Z,2.20
2023-02-03T04:19:30.655Z,2.15
2023-02-03T04:21:58.153Z,2.20
2023-02-03T04:24:25.373Z,2.00
2023-02-03T04:26:52.913Z,2.05
2023-02-03T04:29:20.152Z,2.20
2023-02-03T04:31:47.701Z,1.70
2023-02-03T04:34:14.889Z,2.15
2023-02-03T04:36:42.365Z,2.38
2023-02-03T04:39:09.684Z,2.15
2023-02-03T04:41:37.273Z,1.92
2023-02-03T04:44:05.321Z,2.03
2023-02-03T04:46:32.800Z,2.08
2023-02-03T04:49:00.087Z,2.17
2023-02-03T04:51:27.578Z,1.70
2023-02-03T04:53:54.822Z,2.00
2023-02-03T04:56:22.321Z,2.00
2023-02-03T04:58:49.598Z,2.03
2023-02-03T05:01:17.072Z,1.88
2023-02-03T05:03:44.551Z,1.80
2023-02-03T05:06:12.042Z,1.95
2023-02-03T05:08:39.317Z,1.92
2023-02-03T05:11:06.961Z,1.95
2023-02-03T05:13:34.209Z,2.30
2023-02-03T05:16:01.812Z,1.92
2023-02-03T05:18:29.038Z,1.80
2023-02-03T05:20:56.554Z,2.10
2023-02-03T05:23:24.025Z,2.00
2023-02-03T05:25:52.218Z,1.88
2023-02-03T05:28:19.753Z,1.80
2023-02-03T05:30:47.258Z,2.05
2023-02-03T05:33:14.517Z,2.00
2023-02-03T05:35:42.024Z,1.92
2023-02-03T05:38:09.247Z,1.80
2023-02-03T05:40:55.671Z,2.00
2023-02-03T05:43:23.078Z,1.80
2023-02-03T05:45:50.596Z,1.85
2023-02-03T05:48:17.872Z,2.00
2023-02-03T05:50:45.371Z,2.13
2023-02-03T05:53:12.646Z,1.80
2023-02-03T05:55:41.324Z,2.25
2023-02-03T05:58:08.569Z,2.10
2023-02-03T06:00:36.049Z,2.15
2023-02-03T06:03:03.745Z,2.38
2023-02-03T06:05:33.366Z,2.10
2023-02-03T06:08:01.223Z,2.13
2023-02-03T06:10:29.011Z,1.85
2023-02-03T06:12:56.517Z,2.35
2023-02-03T06:15:24.000Z,1.80
2023-02-03T06:17:51.336Z,1.90
2023-02-03T06:20:20.486Z,2.22
2023-02-03T06:22:47.752Z,2.08
2023-02-03T06:25:15.253Z,2.30
2023-02-03T06:27:43.679Z,2.00
2023-02-03T06:30:11.888Z,2.35
2023-02-03T06:32:40.144Z,2.10
2023-02-03T06:35:08.067Z,2.33
2023-02-03T06:37:35.757Z,2.35
2023-02-03T06:40:04.415Z,2.00
2023-02-03T06:42:31.699Z,2.30
2023-02-03T06:44:59.204Z,1.90
2023-02-03T06:47:26.425Z,2.58
2023-02-03T06:49:53.991Z,2.15
2023-02-03T06:52:21.821Z,1.92
2023-02-03T06:54:49.330Z,2.00
2023-02-03T06:57:16.602Z,2.10
2023-02-03T06:59:44.108Z,2.35
2023-02-03T07:02:12.074Z,2.03
2023-02-03T07:04:39.566Z,2.05
2023-02-03T07:07:06.964Z,1.80
2023-02-03T07:09:34.512Z,2.00
2023-02-03T07:12:01.730Z,2.15
2023-02-03T07:14:31.035Z,2.10
2023-02-03T07:16:58.274Z,2.30
2023-02-03T07:19:25.925Z,2.05
2023-02-03T07:21:53.092Z,1.98
2023-02-03T07:24:20.537Z,1.90
2023-02-03T07:26:47.764Z,2.05
2023-02-03T07:29:15.352Z,2.20
2023-02-03T07:31:42.720Z,2.30
2023-02-03T07:34:10.484Z,2.17
2023-02-03T07:36:37.735Z,1.95
2023-02-03T07:39:05.315Z,2.25
2023-02-03T07:41:33.049Z,2.25
2023-02-03T07:44:00.543Z,2.13
2023-02-03T07:46:27.921Z,2.20
2023-02-03T07:48:55.505Z,1.98
2023-02-03T07:51:22.779Z,2.20
2023-02-03T07:53:50.289Z,2.10
2023-02-03T07:56:17.487Z,2.10
2023-02-03T07:58:45.004Z,2.60
2023-02-03T08:01:15.139Z,1.90
2023-02-03T08:03:43.328Z,2.33
2023-02-03T08:06:11.134Z,2.10
2023-02-03T08:08:38.658Z,2.60
2023-02-03T08:11:05.886Z,1.98
2023-02-03T08:13:33.584Z,2.20
2023-02-03T08:16:00.898Z,2.30
2023-02-03T08:18:30.236Z,2.47
2023-02-03T08:20:59.174Z,2.30
2023-02-03T08:23:26.770Z,2.20
2023-02-03T08:25:54.029Z,2.40
2023-02-03T08:28:21.701Z,2.25
2023-02-03T08:30:49.084Z,2.53
2023-02-03T08:33:16.738Z,2.30
2023-02-03T08:35:49.751Z,2.20
2023-02-03T08:38:17.898Z,2.30
2023-02-03T08:40:45.210Z,2.10
2023-02-03T08:43:12.797Z,2.00
2023-02-03T08:45:40.880Z,2.35
2023-02-03T08:48:08.480Z,2.30
2023-02-03T08:50:35.732Z,2.38
2023-02-03T08:53:03.343Z,2.33
2023-02-03T08:55:30.587Z,2.58
2023-02-03T08:57:58.591Z,2.25
2023-02-03T09:00:26.672Z,2.38
2023-02-03T09:02:54.339Z,2.72
2023-02-03T09:05:21.933Z,3.00
2023-02-03T09:07:49.393Z,2.55
2023-02-03T09:10:17.195Z,2.42
2023-02-03T09:12:44.762Z,2.55
2023-02-03T09:15:12.415Z,2.42
2023-02-03T09:17:39.963Z,2.53
2023-02-03T09:20:07.801Z,2.50
2023-02-03T09:22:35.427Z,2.60
2023-02-03T09:25:02.718Z,2.35
2023-02-03T09:27:30.201Z,2.40
2023-02-03T09:29:58.663Z,2.72
2023-02-03T09:32:26.180Z,2.80
2023-02-03T09:34:53.420Z,2.47
2023-02-03T09:37:21.119Z,2.25
2023-02-03T09:39:48.822Z,2.75
2023-02-03T09:42:53.049Z,2.60
2023-02-03T09:45:29.078Z,2.50
2023-02-03T09:48:09.804Z,2.40
2023-02-03T09:50:39.854Z,2.78
2023-02-03T09:53:23.471Z,2.50
2023-02-03T09:55:50.870Z,2.33
2023-02-03T09:58:22.975Z,2.33
2023-02-03T10:00:57.521Z,2.30
2023-02-03T10:03:31.839Z,2.55
2023-02-03T10:06:10.653Z,2.65
2023-02-03T10:09:25.433Z,2.53
2023-02-03T10:11:58.855Z,2.50
2023-02-03T10:14:29.053Z,2.42
2023-02-03T10:17:11.650Z,2.88
2023-02-03T10:19:47.699Z,2.72
2023-02-03T10:22:24.184Z,2.90
2023-02-03T10:24:55.828Z,3.38
2023-02-03T10:27:25.182Z,2.95
2023-02-03T10:30:27.002Z,2.95
2023-02-03T10:33:00.390Z,2.72
2023-02-03T10:35:55.130Z,2.92
2023-02-03T10:38:41.512Z,3.20
2023-02-03T10:41:09.471Z,2.90
2023-02-03T10:43:57.702Z,3.03
2023-02-03T10:46:33.161Z,3.17
2023-02-03T10:49:00.856Z,3.10
2023-02-03T10:51:41.519Z,3.33
2023-02-03T10:54:31.848Z,2.95
2023-02-03T10:57:12.065Z,3.20
2023-02-03T10:59:45.166Z,3.22
2023-02-03T11:02:25.812Z,2.83
2023-02-03T11:05:17.862Z,2.80
2023-02-03T11:07:46.051Z,2.65
2023-02-03T11:10:36.292Z,3.47
2023-02-03T11:13:23.962Z,3.08
2023-02-03T11:15:56.472Z,3.08
2023-02-03T11:18:41.147Z,2.90
2023-02-03T11:21:13.019Z,3.03
2023-02-03T11:23:51.644Z,3.17
2023-02-03T11:26:27.945Z,3.03
2023-02-03T11:28:59.767Z,3.17
2023-02-03T11:31:29.951Z,2.90
2023-02-03T11:34:01.698Z,3.35
2023-02-03T11:36:31.318Z,3.00
2023-02-03T11:39:20.565Z,3.00
2023-02-03T11:41:48.741Z,2.95
2023-02-03T11:44:29.385Z,3.05
2023-02-03T11:47:02.168Z,3.20
2023-02-03T11:49:55.041Z,2.88
2023-02-03T11:52:40.719Z,2.90
2023-02-03T11:55:21.676Z,3.15
2023-02-03T11:58:12.280Z,3.20
2023-02-03T12:00:45.505Z,3.17
2023-02-03T12:03:51.737Z,2.90
2023-02-03T12:06:22.309Z,3.55
2023-02-03T12:09:20.667Z,2.70
2023-02-03T12:12:03.536Z,3.20
2023-02-03T12:14:33.658Z,2.95
2023-02-03T12:17:13.860Z,2.78
2023-02-03T12:19:52.483Z,3.20
2023-02-03T12:22:53.095Z,3.10
2023-02-03T12:26:08.302Z,2.97
2023-02-03T12:28:53.909Z,2.60
2023-02-03T12:31:50.008Z,3.25
2023-02-03T12:34:32.132Z,3.38
2023-02-03T12:37:16.432Z,2.88
2023-02-03T12:39:52.967Z,2.90
2023-02-03T12:42:34.257Z,3.17
2023-02-03T12:45:18.103Z,3.00
2023-02-03T12:47:55.142Z,2.55
2023-02-03T12:50:45.968Z,2.70
2023-02-03T12:53:24.762Z,3.08
2023-02-03T12:56:05.864Z,3.08
2023-02-03T12:58:58.457Z,2.90
2023-02-03T13:01:33.880Z,2.72
2023-02-03T13:04:32.701Z,3.22
2023-02-03T13:07:15.301Z,2.80
2023-02-03T13:09:59.005Z,3.13
2023-02-03T13:12:41.041Z,3.00
2023-02-03T13:15:20.482Z,3.30
2023-02-03T13:18:03.210Z,2.60
2023-02-03T13:20:35.928Z,2.70
2023-02-03T13:23:11.122Z,2.97
2023-02-03T13:25:56.691Z,2.72
2023-02-03T13:28:45.813Z,2.80
2023-02-03T13:31:34.721Z,2.63
2023-02-03T13:34:25.920Z,3.03
2023-02-03T13:37:23.633Z,2.70
2023-02-03T13:39:54.090Z,3.05
2023-02-03T13:42:33.950Z,2.95
2023-02-03T13:45:26.253Z,3.00
2023-02-03T13:47:58.073Z,2.75
2023-02-03T13:50:30.060Z,2.80
2023-02-03T13:53:02.976Z,2.50
2023-02-03T13:55:38.665Z,2.70
2023-02-03T13:58:18.520Z,2.53
2023-02-03T14:00:45.962Z,2.72
2023-02-03T14:03:36.212Z,2.92
2023-02-03T14:06:04.353Z,2.88
2023-02-03T14:08:31.463Z,2.83
2023-02-03T14:11:33.303Z,2.90
2023-02-03T14:14:12.358Z,2.92
2023-02-03T14:16:44.582Z,3.30
2023-02-03T14:19:32.995Z,3.55
2023-02-03T14:22:06.275Z,2.78
2023-02-03T14:24:42.108Z,3.22
2023-02-03T14:27:26.142Z,3.05
2023-02-03T14:30:16.877Z,3.25
2023-02-03T14:32:59.024Z,2.90
2023-02-03T14:35:40.427Z,2.90
2023-02-03T14:38:11.995Z,2.55
2023-02-03T14:40:57.582Z,2.70
2023-02-03T14:44:04.156Z,3.08
2023-02-03T14:49:10.488Z,2.90
2023-02-03T14:51:59.653Z,2.95
2023-02-03T14:54:54.309Z,3.10
2023-02-03T14:57:49.122Z,2.20
2023-02-03T15:00:19.364Z,2.67
2023-02-03T15:03:11.547Z,2.70
2023-02-03T15:06:04.822Z,2.55
2023-02-03T15:08:43.186Z,3.00
2023-02-03T15:11:47.800Z,3.22
2023-02-03T15:14:32.045Z,2.88
2023-02-03T15:17:11.297Z,2.65
2023-02-03T15:19:40.764Z,2.50
2023-02-03T15:22:28.085Z,2.75
2023-02-03T15:25:04.084Z,2.80
2023-02-03T15:27:32.918Z,2.67
2023-02-03T15:30:16.246Z,2.70
2023-02-03T15:32:57.724Z,2.80
2023-02-03T15:35:29.464Z,2.60
2023-02-03T15:38:03.438Z,2.65
2023-02-03T15:40:38.564Z,2.70
2023-02-03T15:43:16.489Z,3.00
2023-02-03T15:45:59.298Z,2.47
2023-02-03T15:48:36.713Z,2.58
2023-02-03T15:51:14.489Z,2.65
2023-02-03T15:54:13.208Z,2.45
2023-02-03T15:56:41.020Z,3.17
2023-02-03T15:59:22.489Z,2.42
2023-02-03T16:01:49.870Z,3.28
2023-02-03T16:04:17.871Z,2.45
2023-02-03T16:06:48.670Z,3.10
2023-02-03T16:09:34.951Z,3.03
2023-02-03T16:12:18.235Z,3.00
2023-02-03T16:14:46.171Z,2.67
2023-02-03T16:17:38.667Z,2.70
2023-02-03T16:20:11.807Z,2.92
2023-02-03T16:22:58.901Z,3.08
2023-02-03T16:25:33.120Z,2.83
2023-02-03T16:28:22.793Z,2.88
2023-02-03T16:31:21.121Z,2.83
2023-02-03T16:34:08.998Z,3.08
2023-02-03T16:37:00.396Z,2.78
2023-02-03T16:39:47.023Z,2.92
2023-02-03T16:42:38.355Z,2.83
2023-02-03T16:45:37.192Z,3.15
2023-02-03T16:48:24.023Z,3.20
2023-02-03T16:50:58.163Z,2.80
2023-02-03T16:53:30.141Z,2.90
2023-02-03T16:56:00.671Z,3.33
2023-02-03T16:58:28.615Z,3.05
2023-02-03T17:00:58.687Z,3.42
2023-02-03T17:03:28.267Z,3.28
2023-02-03T17:05:57.054Z,3.00
2023-02-03T17:08:26.083Z,3.40
2023-02-03T17:10:54.895Z,3.40
2023-02-03T17:13:24.592Z,3.70
2023-02-03T17:15:54.805Z,3.72
2023-02-03T17:18:22.769Z,4.10
2023-02-03T17:20:50.177Z,4.22
2023-02-03T17:23:17.905Z,3.40
2023-02-03T17:25:47.209Z,3.75
2023-02-03T17:28:14.999Z,3.70
2023-02-03T17:30:42.399Z,4.55
2023-02-03T17:33:13.297Z,3.65
2023-02-03T17:35:45.211Z,3.92
2023-02-03T17:38:14.939Z,3.30
2023-02-03T17:54:36.956Z,3.97
2023-02-03T17:57:04.548Z,3.58
2023-02-03T17:59:34.942Z,4.30
2023-02-03T18:02:02.270Z,3.63
2023-02-03T18:04:29.989Z,3.67
2023-02-03T18:06:57.279Z,3.42
2023-02-03T18:09:24.841Z,4.25
2023-02-03T18:11:52.049Z,4.20
2023-02-03T18:14:19.500Z,4.47
2023-02-03T18:16:47.471Z,4.10
2023-02-03T18:19:16.042Z,4.22
2023-02-03T18:21:44.668Z,3.88
2023-02-03T18:24:13.430Z,4.32
2023-02-03T18:26:51.878Z,4.32
2023-02-03T18:29:19.980Z,4.72
2023-02-03T18:31:48.153Z,4.88
2023-02-03T18:34:17.278Z,4.72
2023-02-03T18:36:45.303Z,4.40
2023-02-03T18:39:15.034Z,4.15
2023-02-03T18:41:42.819Z,4.10
2023-02-03T18:44:10.395Z,4.10
2023-02-03T18:46:37.699Z,4.50
2023-02-03T18:49:07.891Z,4.38
2023-02-03T18:51:35.427Z,4.28
2023-02-03T18:54:03.818Z,4.18
2023-02-03T18:56:37.163Z,4.32
2023-02-03T18:59:11.132Z,3.92
2023-02-03T19:01:39.041Z,4.28
2023-02-03T19:04:06.974Z,3.97
2023-02-03T19:06:34.806Z,4.75
2023-02-03T19:09:03.919Z,4.25
2023-02-03T19:11:33.653Z,4.50
2023-02-03T19:14:01.189Z,5.22
2023-02-03T19:16:28.431Z,4.00
2023-02-03T19:18:56.157Z,4.32
2023-02-03T19:21:23.377Z,3.75
2023-02-03T19:23:50.867Z,3.95
2023-02-03T19:26:19.031Z,3.90
2023-02-03T19:28:46.656Z,4.47
2023-02-03T19:31:15.386Z,4.30
2023-02-03T19:33:43.839Z,4.07
2023-02-03T19:36:11.787Z,3.90
2023-02-03T19:38:39.363Z,4.40
2023-02-03T19:41:07.681Z,4.43
2023-02-03T19:43:35.216Z,3.83
2023-02-03T19:46:02.533Z,4.47
2023-02-03T19:48:30.134Z,4.03
2023-02-03T19:50:57.430Z,4.00
2023-02-03T19:53:25.165Z,4.78
2023-02-03T19:55:52.504Z,4.15
2023-02-03T19:58:20.055Z,4.00
2023-02-03T20:00:47.274Z,4.38
2023-02-03T20:03:17.190Z,4.10
2023-02-03T20:05:44.452Z,4.10
2023-02-03T20:08:14.412Z,3.83
2023-02-03T20:10:44.411Z,4.40
2023-02-03T20:13:13.136Z,4.28
2023-02-03T20:15:41.029Z,4.03
2023-02-03T20:18:08.796Z,4.05
2023-02-03T20:20:36.406Z,4.05
2023-02-03T20:23:04.058Z,4.18
2023-02-03T20:25:31.363Z,3.83
2023-02-03T20:28:02.376Z,4.22
2023-02-03T20:30:30.439Z,4.40
2023-02-03T20:32:58.616Z,4.10
2023-02-03T20:35:26.794Z,4.20
2023-02-03T20:37:54.622Z,3.97
2023-02-03T20:40:23.455Z,4.10
2023-02-03T20:42:52.750Z,4.15
2023-02-03T20:45:22.414Z,4.25
2023-02-03T20:47:51.027Z,4.00
2023-02-03T20:50:28.931Z,3.97
2023-02-03T20:52:59.467Z,4.53
2023-02-03T20:55:26.710Z,4.20
2023-02-03T20:57:56.746Z,3.85
2023-02-03T21:00:26.526Z,4.03
2023-02-03T21:03:13.648Z,4.13
2023-02-03T21:05:45.276Z,3.90
2023-02-03T21:08:14.005Z,4.10
2023-02-03T21:10:42.058Z,3.67
2023-02-03T21:13:23.289Z,4.07
2023-02-03T21:15:56.080Z,4.07
2023-02-03T21:18:34.487Z,3.60
2023-02-03T21:21:02.232Z,4.00
2023-02-03T21:23:40.576Z,3.60
2023-02-03T21:26:27.992Z,3.95
2023-02-03T21:28:58.039Z,4.18
2023-02-03T21:31:26.947Z,3.88
2023-02-03T21:33:56.693Z,3.90
2023-02-03T21:36:26.143Z,3.65
2023-02-03T21:38:59.766Z,4.35
2023-02-03T21:41:35.047Z,3.60
2023-02-03T21:44:02.686Z,3.90
2023-02-03T21:46:33.289Z,3.42
2023-02-03T21:49:02.556Z,3.45
2023-02-03T21:51:35.366Z,3.95
2023-02-03T21:54:25.716Z,3.95
2023-02-03T21:56:54.184Z,3.47
2023-02-03T21:59:26.020Z,3.47
2023-02-03T22:01:53.941Z,3.80
2023-02-03T22:04:21.427Z,3.80
2023-02-03T22:06:50.749Z,3.83
2023-02-03T22:09:25.998Z,3.72
2023-02-03T22:11:53.463Z,3.70
2023-02-03T22:14:21.424Z,4.18
2023-02-03T22:16:48.704Z,3.70
2023-02-03T22:19:18.754Z,3.65
2023-02-03T22:21:47.714Z,3.45
2023-02-03T22:24:15.234Z,3.70
2023-02-03T22:26:42.434Z,4.00
2023-02-03T22:29:09.930Z,3.60
2023-02-03T22:31:37.931Z,3.70
2023-02-03T22:34:05.380Z,3.42
2023-02-03T22:36:32.655Z,3.83
2023-02-03T22:39:00.078Z,3.88
2023-02-03T22:41:27.444Z,3.88
2023-02-03T22:43:55.118Z,3.97
2023-02-03T22:46:22.387Z,4.10
2023-02-03T22:48:49.932Z,3.45
2023-02-03T22:51:17.102Z,4.13
2023-02-03T22:53:45.669Z,3.70
2023-02-03T22:56:12.890Z,3.47
2023-02-03T22:58:40.411Z,3.30
2023-02-03T23:01:07.751Z,3.45
2023-02-03T23:03:35.250Z,3.42
2023-02-03T23:06:02.720Z,3.50
2023-02-03T23:08:30.217Z,3.45
2023-02-03T23:10:57.437Z,3.22
2023-02-03T23:13:25.092Z,3.22
2023-02-03T23:15:52.345Z,3.45
2023-02-03T23:18:19.862Z,3.55
2023-02-03T23:20:47.038Z,3.50
2023-02-03T23:23:14.515Z,3.17
2023-02-03T23:25:41.739Z,3.22
2023-02-03T23:28:09.253Z,3.58
2023-02-03T23:30:36.976Z,3.95
2023-02-03T23:33:04.522Z,3.20
2023-02-03T23:35:46.928Z,2.90
2023-02-03T23:38:15.886Z,3.25
2023-02-03T23:40:43.580Z,3.53
2023-02-03T23:43:11.035Z,3.13
2023-02-03T23:45:38.307Z,3.42
2023-02-03T23:48:06.617Z,3.30
2023-02-03T23:50:33.917Z,3.30
2023-02-03T23:53:01.426Z,3.20
2023-02-03T23:55:29.275Z,3.33
2023-02-03T23:57:57.213Z,3.58
